Time;durP1;ratioP1;P1;durP2;ratioP2;P2;SDS_P1;SDS_P2;PMS_P1;PMS_P2;Temp;Humidity;BMP_temperature;BMP_pressure;BME280_temperature;BME280_humidity;BME280_pressure;Samples;Min_cycle;Max_cycle;Signal;HPM_P1;HPM_P2
2023/07/23 00:00:26;;;;;;;8.95;5.30;;;;;;;;;;5100925;27;20102;-63
2023/07/23 00:02:51;;;;;;;10.00;5.55;;;;;;;;;;5084592;27;20016;-63
2023/07/23 00:05:20;;;;;;;8.40;5.57;;;;;;;;;;5082869;28;20505;-61
2023/07/23 00:07:48;;;;;;;8.43;5.07;;;;;;;;;;5080369;28;20402;-62
2023/07/23 00:10:18;;;;;;;10.35;5.32;;;;;;;;;;5084398;28;20026;-62
2023/07/23 00:12:44;;;;;;;10.57;5.72;;;;;;;;;;5080629;28;20429;-63
2023/07/23 00:15:09;;;;;;;11.90;5.57;;;;;;;;;;5074236;28;20019;-64
2023/07/23 00:17:34;;;;;;;8.05;5.53;;;;;;;;;;5087782;28;20040;-62
2023/07/23 00:19:59;;;;;;;8.73;5.37;;;;;;;;;;5086878;28;21280;-63
2023/07/23 00:22:30;;;;;;;10.17;5.93;;;;;;;;;;5081642;28;20011;-64
2023/07/23 00:24:56;;;;;;;9.63;4.85;;;;;;;;;;5079318;28;20019;-64
2023/07/23 00:27:24;;;;;;;8.48;5.10;;;;;;;;;;5082150;28;20389;-63
2023/07/23 00:29:49;;;;;;;8.82;4.95;;;;;;;;;;5077784;28;20394;-65
2023/07/23 00:32:14;;;;;;;8.83;4.90;;;;;;;;;;5086531;28;20016;-62
2023/07/23 00:34:40;;;;;;;8.80;4.83;;;;;;;;;;5075872;28;20493;-62
2023/07/23 00:37:05;;;;;;;7.45;4.30;;;;;;;;;;5079985;28;20027;-62
2023/07/23 00:39:30;;;;;;;9.98;4.72;;;;;;;;;;5081931;28;20024;-61
2023/07/23 00:41:58;;;;;;;10.03;5.13;;;;;;;;;;5084279;28;20015;-63
2023/07/23 00:44:23;;;;;;;9.48;5.10;;;;;;;;;;5085626;28;20556;-63
2023/07/23 00:46:49;;;;;;;9.77;5.00;;;;;;;;;;5081009;28;20016;-60
2023/07/23 00:49:15;;;;;;;7.65;4.55;;;;;;;;;;5077416;28;20245;-62
2023/07/23 00:51:42;;;;;;;9.05;5.13;;;;;;;;;;5081113;28;20020;-63
2023/07/23 00:54:08;;;;;;;9.13;4.70;;;;;;;;;;5077924;28;20019;-63
2023/07/23 00:56:40;;;;;;;7.47;4.93;;;;;;;;;;5097425;27;20442;-62
2023/07/23 00:59:08;;;;;;;10.15;5.13;;;;;;;;;;5082586;28;20028;-62
2023/07/23 01:01:38;;;;;;;8.85;5.05;;;;;;;;;;5078983;28;20020;-63
2023/07/23 01:04:03;;;;;;;7.65;5.03;;;;;;;;;;5077839;28;20032;-63
2023/07/23 01:06:31;;;;;;;9.77;5.30;;;;;;;;;;5087098;28;20393;-63
2023/07/23 01:08:56;;;;;;;9.45;5.07;;;;;;;;;;5080475;28;20688;-62
2023/07/23 01:11:25;;;;;;;11.63;5.22;;;;;;;;;;5085641;28;20019;-62
2023/07/23 01:13:51;;;;;;;10.13;4.78;;;;;;;;;;5097888;27;20115;-62
2023/07/23 01:16:17;;;;;;;10.10;4.72;;;;;;;;;;5079074;28;20031;-61
2023/07/23 01:18:42;;;;;;;10.35;5.22;;;;;;;;;;5091601;28;20607;-62
2023/07/23 01:21:09;;;;;;;8.68;4.75;;;;;;;;;;5084920;28;20097;-63
2023/07/23 01:23:35;;;;;;;9.95;5.55;;;;;;;;;;5088660;28;20548;-61
2023/07/23 01:26:00;;;;;;;9.53;4.80;;;;;;;;;;5084267;28;20131;-62
2023/07/23 01:28:25;;;;;;;9.20;4.97;;;;;;;;;;5080277;28;20270;-63
2023/07/23 01:30:54;;;;;;;7.50;4.57;;;;;;;;;;5085197;28;20028;-64
2023/07/23 01:33:22;;;;;;;9.35;5.13;;;;;;;;;;5081741;28;20278;-63
2023/07/23 01:35:47;;;;;;;8.57;5.07;;;;;;;;;;5086665;28;20026;-64
2023/07/23 01:38:14;;;;;;;8.25;4.80;;;;;;;;;;5086776;28;20032;-64
2023/07/23 01:40:40;;;;;;;7.68;4.43;;;;;;;;;;5086750;28;20167;-62
2023/07/23 01:43:06;;;;;;;9.00;5.07;;;;;;;;;;5089455;28;20027;-63
2023/07/23 01:45:36;;;;;;;11.73;4.90;;;;;;;;;;5085710;27;20016;-63
2023/07/23 01:48:01;;;;;;;7.20;4.70;;;;;;;;;;5098948;27;20092;-62
2023/07/23 01:50:26;;;;;;;9.20;5.10;;;;;;;;;;5082465;28;20433;-63
2023/07/23 01:52:53;;;;;;;7.87;4.93;;;;;;;;;;5086010;28;20323;-63
2023/07/23 01:55:21;;;;;;;8.85;4.50;;;;;;;;;;5093105;28;20765;-63
2023/07/23 01:57:48;;;;;;;9.15;5.40;;;;;;;;;;5088158;27;20028;-62
2023/07/23 02:00:16;;;;;;;7.78;4.90;;;;;;;;;;5093571;27;20049;-61
2023/07/23 02:02:41;;;;;;;10.18;4.78;;;;;;;;;;5084158;27;20127;-62
2023/07/23 02:05:07;;;;;;;9.23;4.60;;;;;;;;;;5087978;28;20020;-63
2023/07/23 02:07:32;;;;;;;7.30;4.63;;;;;;;;;;5097164;28;20031;-63
2023/07/23 02:09:57;;;;;;;8.00;4.90;;;;;;;;;;5087582;28;20122;-63
2023/07/23 02:12:22;;;;;;;9.70;4.93;;;;;;;;;;5086816;28;20265;-63
2023/07/23 02:14:48;;;;;;;9.60;5.10;;;;;;;;;;5084727;28;20020;-63
2023/07/23 02:17:13;;;;;;;6.60;4.57;;;;;;;;;;5089576;28;20032;-63
2023/07/23 02:19:41;;;;;;;8.00;4.50;;;;;;;;;;5088898;28;20020;-62
2023/07/23 02:22:06;;;;;;;6.90;4.57;;;;;;;;;;5089430;28;20012;-61
2023/07/23 02:24:32;;;;;;;9.35;5.00;;;;;;;;;;5091736;28;20024;-63
2023/07/23 02:26:57;;;;;;;7.80;4.90;;;;;;;;;;5089247;28;21783;-62
2023/07/23 02:29:22;;;;;;;9.90;4.83;;;;;;;;;;5093084;28;20062;-61
2023/07/23 02:31:49;;;;;;;8.68;5.10;;;;;;;;;;5088822;27;20051;-64
2023/07/23 02:34:14;;;;;;;8.50;4.95;;;;;;;;;;5094046;28;20020;-63
2023/07/23 02:36:40;;;;;;;9.73;4.80;;;;;;;;;;5085251;27;20624;-63
2023/07/23 02:39:05;;;;;;;8.07;5.10;;;;;;;;;;5087038;28;20284;-63
2023/07/23 02:41:30;;;;;;;8.00;4.50;;;;;;;;;;5085928;28;20020;-63
2023/07/23 02:43:55;;;;;;;9.63;4.67;;;;;;;;;;5110284;27;20690;-64
2023/07/23 02:46:21;;;;;;;7.87;4.70;;;;;;;;;;5088557;28;20277;-64
2023/07/23 02:48:46;;;;;;;8.93;4.70;;;;;;;;;;5081739;28;20277;-65
2023/07/23 02:51:11;;;;;;;8.60;5.00;;;;;;;;;;5096295;28;20095;-64
2023/07/23 02:53:36;;;;;;;9.37;4.90;;;;;;;;;;5086926;28;20322;-64
2023/07/23 02:56:02;;;;;;;7.47;4.60;;;;;;;;;;5088933;28;20560;-64
2023/07/23 02:58:27;;;;;;;10.43;4.90;;;;;;;;;;5080526;28;20429;-63
2023/07/23 03:00:56;;;;;;;9.45;4.60;;;;;;;;;;5089314;28;20020;-64
2023/07/23 03:03:23;;;;;;;11.35;4.75;;;;;;;;;;5079969;28;20052;-64
2023/07/23 03:05:49;;;;;;;9.65;4.75;;;;;;;;;;5080162;28;20032;-64
2023/07/23 03:08:14;;;;;;;8.83;4.63;;;;;;;;;;5080322;28;20670;-63
2023/07/23 03:10:40;;;;;;;8.63;5.10;;;;;;;;;;5081422;28;20012;-63
2023/07/23 03:13:05;;;;;;;7.95;5.05;;;;;;;;;;5091859;28;20039;-63
2023/07/23 03:15:30;;;;;;;7.55;4.68;;;;;;;;;;5081704;28;20023;-63
2023/07/23 03:17:55;;;;;;;8.73;4.82;;;;;;;;;;5085000;28;20083;-63
2023/07/23 03:20:21;;;;;;;10.73;4.90;;;;;;;;;;5082257;28;20019;-63
2023/07/23 03:22:49;;;;;;;9.60;5.28;;;;;;;;;;5092229;28;20281;-63
2023/07/23 03:25:14;;;;;;;9.60;4.97;;;;;;;;;;5078064;27;20020;-63
2023/07/23 03:27:39;;;;;;;9.30;4.85;;;;;;;;;;5083863;28;20024;-64
2023/07/23 03:30:07;;;;;;;11.33;5.43;;;;;;;;;;5085257;28;20023;-64
2023/07/23 03:32:32;;;;;;;7.75;5.28;;;;;;;;;;5085746;28;20268;-63
2023/07/23 03:35:00;;;;;;;8.30;5.20;;;;;;;;;;5093147;28;20011;-62
2023/07/23 03:37:25;;;;;;;10.23;5.35;;;;;;;;;;5081385;28;21413;-64
2023/07/23 03:39:50;;;;;;;10.80;5.27;;;;;;;;;;5082216;28;20107;-64
2023/07/23 03:42:15;;;;;;;10.80;5.20;;;;;;;;;;5083013;28;20798;-64
2023/07/23 03:44:41;;;;;;;9.00;5.10;;;;;;;;;;5091004;28;20116;-63
2023/07/23 03:47:10;;;;;;;8.90;5.37;;;;;;;;;;5089613;28;20027;-64
2023/07/23 03:49:35;;;;;;;10.77;5.32;;;;;;;;;;5091384;27;20035;-62
2023/07/23 03:52:04;;;;;;;7.37;5.10;;;;;;;;;;5091687;28;20035;-63
2023/07/23 03:54:29;;;;;;;10.30;5.93;;;;;;;;;;5079980;28;20890;-62
2023/07/23 03:56:57;;;;;;;10.83;5.47;;;;;;;;;;5087331;28;20054;-63
2023/07/23 03:59:26;;;;;;;8.75;5.60;;;;;;;;;;5083386;28;20288;-63
2023/07/23 04:01:51;;;;;;;8.48;5.15;;;;;;;;;;5091568;28;20026;-63
2023/07/23 04:04:19;;;;;;;9.27;5.63;;;;;;;;;;5086537;28;20031;-62
2023/07/23 04:06:49;;;;;;;9.93;5.00;;;;;;;;;;5088938;28;20034;-63
2023/07/23 04:09:14;;;;;;;7.90;5.22;;;;;;;;;;5090552;28;20059;-63
2023/07/23 04:11:40;;;;;;;9.00;5.10;;;;;;;;;;5086568;28;20188;-61
2023/07/23 04:14:06;;;;;;;7.80;4.87;;;;;;;;;;5102858;27;20266;-64
2023/07/23 04:16:32;;;;;;;9.77;5.30;;;;;;;;;;5087772;28;20024;-64
2023/07/23 04:18:57;;;;;;;9.00;5.22;;;;;;;;;;5090073;28;20050;-65
2023/07/23 04:21:22;;;;;;;10.60;6.43;;;;;;;;;;5087696;27;20031;-64
2023/07/23 04:23:51;;;;;;;10.53;5.57;;;;;;;;;;5082457;28;20633;-65
2023/07/23 04:26:17;;;;;;;11.63;6.68;;;;;;;;;;5086884;28;20274;-64
2023/07/23 04:28:42;;;;;;;11.68;6.88;;;;;;;;;;5085655;28;20386;-65
2023/07/23 04:31:08;;;;;;;13.73;7.95;;;;;;;;;;5083162;28;20435;-65
2023/07/23 04:33:35;;;;;;;14.52;8.38;;;;;;;;;;5090181;28;20065;-62
2023/07/23 04:36:03;;;;;;;13.43;7.80;;;;;;;;;;5086188;27;20500;-64
2023/07/23 04:38:31;;;;;;;14.50;8.40;;;;;;;;;;5080578;28;20028;-64
2023/07/23 04:40:56;;;;;;;14.98;8.05;;;;;;;;;;5081760;28;20036;-64
2023/07/23 04:43:24;;;;;;;12.85;8.20;;;;;;;;;;5091482;28;20114;-64
2023/07/23 04:45:49;;;;;;;13.27;8.20;;;;;;;;;;5096454;27;20023;-63
2023/07/23 04:48:16;;;;;;;14.67;8.13;;;;;;;;;;5080978;28;20035;-63
2023/07/23 04:50:45;;;;;;;12.77;7.55;;;;;;;;;;5089267;28;20968;-63
2023/07/23 04:53:11;;;;;;;13.05;7.72;;;;;;;;;;5079636;28;20031;-63
2023/07/23 04:55:36;;;;;;;13.90;7.47;;;;;;;;;;5084433;28;20046;-63
2023/07/23 04:58:02;;;;;;;15.27;8.63;;;;;;;;;;5080299;28;20110;-64
2023/07/23 05:00:27;;;;;;;16.27;8.20;;;;;;;;;;5088947;28;20041;-65
2023/07/23 05:02:53;;;;;;;16.25;8.90;;;;;;;;;;5080560;28;20476;-64
2023/07/23 05:05:18;;;;;;;14.77;7.63;;;;;;;;;;5078643;28;20022;-62
2023/07/23 05:07:43;;;;;;;13.63;8.13;;;;;;;;;;5087666;28;20571;-64
2023/07/23 05:10:09;;;;;;;16.10;9.60;;;;;;;;;;5079720;28;20856;-63
2023/07/23 05:12:34;;;;;;;15.63;9.27;;;;;;;;;;5085731;28;20505;-63
2023/07/23 05:15:12;;;;;;;15.18;9.45;;;;;;;;;;5077916;28;20012;-62
2023/07/23 05:17:38;;;;;;;16.05;9.07;;;;;;;;;;5088594;28;20044;-62
2023/07/23 05:20:07;;;;;;;14.90;9.02;;;;;;;;;;5083622;28;20088;-61
2023/07/23 05:22:34;;;;;;;12.75;8.10;;;;;;;;;;5082786;28;20024;-62
2023/07/23 05:25:00;;;;;;;15.25;8.68;;;;;;;;;;5083549;28;20560;-62
2023/07/23 05:27:28;;;;;;;16.03;8.70;;;;;;;;;;5080648;28;20035;-61
2023/07/23 05:29:53;;;;;;;14.68;8.70;;;;;;;;;;5094491;28;20038;-61
2023/07/23 05:32:19;;;;;;;16.98;9.52;;;;;;;;;;5092710;27;20020;-62
2023/07/23 05:34:44;;;;;;;15.40;8.77;;;;;;;;;;5088379;28;20015;-62
2023/07/23 05:37:09;;;;;;;15.93;9.03;;;;;;;;;;5079217;28;20039;-64
2023/07/23 05:39:34;;;;;;;18.63;9.30;;;;;;;;;;5090232;28;20132;-63
2023/07/23 05:42:00;;;;;;;15.53;8.83;;;;;;;;;;5088135;28;20028;-63
2023/07/23 05:44:25;;;;;;;16.73;8.95;;;;;;;;;;5083490;28;21065;-63
2023/07/23 05:46:53;;;;;;;15.43;9.07;;;;;;;;;;5087717;28;20024;-64
2023/07/23 05:49:20;;;;;;;16.13;9.00;;;;;;;;;;5079392;28;20047;-64
2023/07/23 05:51:45;;;;;;;15.50;9.02;;;;;;;;;;5081885;28;20028;-63
2023/07/23 05:54:11;;;;;;;19.47;10.17;;;;;;;;;;5077352;28;20027;-65
2023/07/23 05:56:37;;;;;;;15.43;9.23;;;;;;;;;;5077503;28;20024;-62
2023/07/23 05:59:02;;;;;;;17.20;9.18;;;;;;;;;;5080396;28;20668;-60
2023/07/23 06:01:30;;;;;;;16.93;10.37;;;;;;;;;;5073149;28;20452;-61
2023/07/23 06:03:57;;;;;;;16.58;9.60;;;;;;;;;;5085344;28;20345;-61
2023/07/23 06:06:23;;;;;;;15.85;10.07;;;;;;;;;;5078525;28;20031;-63
2023/07/23 06:08:48;;;;;;;14.83;8.90;;;;;;;;;;5098726;27;20012;-65
2023/07/23 06:11:13;;;;;;;15.95;9.60;;;;;;;;;;5082718;28;20265;-68
2023/07/23 06:13:41;;;;;;;17.10;9.35;;;;;;;;;;5083767;28;20028;-63
2023/07/23 06:16:11;;;;;;;16.95;8.88;;;;;;;;;;5084601;28;20023;-65
2023/07/23 06:18:39;;;;;;;14.38;9.02;;;;;;;;;;5081878;28;20051;-63
2023/07/23 06:21:04;;;;;;;16.20;8.95;;;;;;;;;;5081594;28;20855;-63
2023/07/23 06:23:30;;;;;;;14.77;8.40;;;;;;;;;;5079660;28;20103;-65
2023/07/23 06:25:56;;;;;;;15.68;8.95;;;;;;;;;;5082574;28;20753;-63
2023/07/23 06:28:21;;;;;;;13.82;8.10;;;;;;;;;;5090843;28;20143;-66
2023/07/23 06:30:49;;;;;;;13.13;7.57;;;;;;;;;;5091615;28;20564;-65
2023/07/23 06:33:15;;;;;;;14.30;8.13;;;;;;;;;;5078952;28;20039;-62
2023/07/23 06:35:42;;;;;;;16.00;8.60;;;;;;;;;;5087050;27;20020;-62
2023/07/23 06:38:07;;;;;;;15.73;8.57;;;;;;;;;;5079615;28;20035;-64
2023/07/23 06:40:37;;;;;;;12.93;7.47;;;;;;;;;;5086760;28;20012;-61
2023/07/23 06:43:02;;;;;;;13.75;8.23;;;;;;;;;;5081326;28;20261;-61
2023/07/23 06:45:28;;;;;;;14.65;7.80;;;;;;;;;;5093132;28;20390;-61
2023/07/23 06:47:53;;;;;;;15.98;8.40;;;;;;;;;;5078434;28;20046;-65
2023/07/23 06:50:18;;;;;;;12.83;6.73;;;;;;;;;;5089802;28;20019;-62
2023/07/23 06:52:44;;;;;;;20.37;8.00;;;;;;;;;;5078363;28;20336;-65
2023/07/23 06:55:09;;;;;;;13.52;6.93;;;;;;;;;;5090552;28;20265;-64
2023/07/23 06:57:34;;;;;;;19.77;8.18;;;;;;;;;;5084082;28;20035;-64
2023/07/23 07:00:03;;;;;;;14.38;7.57;;;;;;;;;;5078338;28;20072;-64
2023/07/23 07:02:28;;;;;;;13.68;8.15;;;;;;;;;;5087298;28;20047;-63
2023/07/23 07:04:53;;;;;;;13.10;7.95;;;;;;;;;;5083738;28;20180;-61
2023/07/23 07:07:18;;;;;;;12.97;7.57;;;;;;;;;;5084194;28;20028;-61
2023/07/23 07:09:44;;;;;;;12.57;7.37;;;;;;;;;;5082930;28;20269;-63
2023/07/23 07:12:09;;;;;;;12.70;7.75;;;;;;;;;;5083364;28;20305;-62
2023/07/23 07:14:37;;;;;;;14.43;8.20;;;;;;;;;;5084260;28;20684;-63
2023/07/23 07:17:04;;;;;;;12.40;7.72;;;;;;;;;;5089647;28;20065;-63
2023/07/23 07:19:30;;;;;;;11.38;7.15;;;;;;;;;;5078181;28;20028;-63
2023/07/23 07:21:55;;;;;;;15.18;7.53;;;;;;;;;;5083425;28;20053;-63
2023/07/23 07:24:20;;;;;;;10.63;6.40;;;;;;;;;;5088680;28;20026;-63
2023/07/23 07:26:48;;;;;;;13.32;6.95;;;;;;;;;;5086927;28;20265;-63
2023/07/23 07:29:13;;;;;;;10.95;6.05;;;;;;;;;;5084352;28;20047;-63
2023/07/23 07:31:38;;;;;;;12.48;6.85;;;;;;;;;;5079353;27;20590;-64
2023/07/23 07:34:04;;;;;;;11.80;6.87;;;;;;;;;;5079044;28;21246;-63
2023/07/23 07:36:29;;;;;;;12.85;7.30;;;;;;;;;;5097506;27;20365;-63
2023/07/23 07:38:54;;;;;;;12.40;7.10;;;;;;;;;;5084206;28;20020;-63
2023/07/23 07:41:19;;;;;;;12.77;6.87;;;;;;;;;;5087231;28;20279;-63
2023/07/23 07:43:45;;;;;;;11.23;6.63;;;;;;;;;;5079969;28;20315;-63
2023/07/23 07:46:12;;;;;;;11.20;6.70;;;;;;;;;;5084973;28;20038;-63
2023/07/23 07:48:39;;;;;;;12.52;7.18;;;;;;;;;;5079126;28;20266;-63
2023/07/23 07:51:07;;;;;;;12.80;6.75;;;;;;;;;;5087117;28;20011;-63
2023/07/23 07:53:34;;;;;;;12.15;6.97;;;;;;;;;;5074031;28;20024;-61
2023/07/23 07:56:00;;;;;;;14.25;7.72;;;;;;;;;;5080360;28;20663;-61
2023/07/23 07:58:26;;;;;;;12.57;6.35;;;;;;;;;;5076213;28;20081;-62
2023/07/23 08:00:54;;;;;;;12.45;7.20;;;;;;;;;;5085210;28;20016;-62
2023/07/23 08:03:22;;;;;;;10.18;6.40;;;;;;;;;;5083305;28;20053;-62
2023/07/23 08:05:47;;;;;;;11.40;6.30;;;;;;;;;;5081991;28;20486;-62
2023/07/23 08:08:14;;;;;;;13.10;5.93;;;;;;;;;;5084967;28;20027;-61
2023/07/23 08:10:40;;;;;;;11.57;6.22;;;;;;;;;;5074588;28;20024;-61
2023/07/23 08:13:07;;;;;;;12.77;6.37;;;;;;;;;;5084854;28;20024;-61
2023/07/23 08:15:33;;;;;;;11.82;6.05;;;;;;;;;;5088108;28;20332;-62
2023/07/23 08:17:59;;;;;;;12.25;6.32;;;;;;;;;;5078547;28;20158;-61
2023/07/23 08:20:27;;;;;;;11.07;6.70;;;;;;;;;;5082624;28;20020;-61
2023/07/23 08:22:52;;;;;;;10.43;6.00;;;;;;;;;;5088214;28;20015;-61
2023/07/23 08:25:18;;;;;;;10.02;6.25;;;;;;;;;;5085318;28;20019;-61
2023/07/23 08:27:45;;;;;;;9.40;5.93;;;;;;;;;;5074465;28;20032;-61
2023/07/23 08:30:13;;;;;;;10.68;6.13;;;;;;;;;;5080079;28;20016;-61
2023/07/23 08:32:38;;;;;;;9.88;5.05;;;;;;;;;;5078171;28;20607;-61
2023/07/23 08:35:04;;;;;;;8.93;5.37;;;;;;;;;;5073888;28;20099;-61
2023/07/23 08:37:29;;;;;;;10.25;4.93;;;;;;;;;;5074141;28;21081;-61
2023/07/23 08:39:54;;;;;;;9.88;5.60;;;;;;;;;;5070793;28;21501;-61
2023/07/23 08:42:31;;;;;;;10.77;5.43;;;;;;;;;;5076979;28;20023;-61
2023/07/23 08:45:32;;;;;;;10.23;5.40;;;;;;;;;;5074003;28;20031;-62
2023/07/23 08:48:07;;;;;;;9.07;5.03;;;;;;;;;;5036451;28;20384;-61
2023/07/23 08:50:33;;;;;;;8.18;4.85;;;;;;;;;;5066310;28;20046;-61
2023/07/23 08:52:58;;;;;;;8.77;5.30;;;;;;;;;;5082166;28;20477;-60
2023/07/23 08:55:24;;;;;;;8.98;4.63;;;;;;;;;;5077088;28;20065;-60
2023/07/23 08:57:53;;;;;;;9.07;5.15;;;;;;;;;;5080987;28;20027;-60
2023/07/23 09:00:18;;;;;;;7.93;4.40;;;;;;;;;;5082288;28;20601;-61
2023/07/23 09:02:44;;;;;;;8.68;5.13;;;;;;;;;;5082668;28;20020;-61
2023/07/23 09:05:10;;;;;;;10.15;6.13;;;;;;;;;;5076172;28;20034;-60
2023/07/23 09:07:40;;;;;;;8.50;4.77;;;;;;;;;;5079807;28;20019;-61
2023/07/23 09:10:07;;;;;;;9.32;4.88;;;;;;;;;;5081939;28;20364;-61
2023/07/23 09:12:39;;;;;;;9.90;5.07;;;;;;;;;;5078957;28;20117;-61
2023/07/23 09:15:05;;;;;;;45.50;33.70;;;;;;;;;;5078661;28;20032;-61
2023/07/23 09:17:30;;;;;;;11.00;6.25;;;;;;;;;;5078657;28;20051;-61
2023/07/23 09:19:55;;;;;;;18.03;12.93;;;;;;;;;;5078868;28;20047;-61
2023/07/23 09:22:21;;;;;;;9.73;5.37;;;;;;;;;;5083834;28;20650;-61
2023/07/23 09:24:46;;;;;;;11.73;5.90;;;;;;;;;;5082850;28;20024;-61
2023/07/23 09:27:14;;;;;;;9.57;5.67;;;;;;;;;;5080599;28;20139;-60
2023/07/23 09:29:41;;;;;;;9.45;5.57;;;;;;;;;;5084982;27;20027;-61
2023/07/23 09:32:21;;;;;;;12.75;5.65;;;;;;;;;;5081005;28;20526;-61
2023/07/23 09:34:47;;;;;;;10.05;5.28;;;;;;;;;;5090150;28;20020;-61
2023/07/23 09:37:15;;;;;;;9.00;5.03;;;;;;;;;;5084254;28;20043;-61
2023/07/23 09:39:43;;;;;;;8.00;4.80;;;;;;;;;;5089341;28;20246;-60
2023/07/23 09:42:08;;;;;;;11.35;5.40;;;;;;;;;;5079523;28;20023;-61
2023/07/23 09:44:33;;;;;;;10.33;5.40;;;;;;;;;;5085953;28;20039;-61
2023/07/23 09:46:59;;;;;;;9.33;5.40;;;;;;;;;;5078716;28;20020;-61
2023/07/23 09:49:28;;;;;;;8.82;5.28;;;;;;;;;;5083254;28;20336;-61
2023/07/23 09:51:53;;;;;;;9.20;5.85;;;;;;;;;;5085693;28;20056;-61
2023/07/23 09:54:22;;;;;;;9.27;5.37;;;;;;;;;;5079746;28;20095;-60
2023/07/23 09:56:51;;;;;;;8.80;5.30;;;;;;;;;;5082973;28;20273;-60
2023/07/23 09:59:19;;;;;;;9.77;5.47;;;;;;;;;;5082238;28;20024;-61
2023/07/23 10:01:47;;;;;;;9.38;5.72;;;;;;;;;;5086860;28;20015;-59
2023/07/23 10:04:15;;;;;;;9.95;5.65;;;;;;;;;;5080689;28;20367;-61
2023/07/23 10:06:40;;;;;;;8.18;4.95;;;;;;;;;;5088885;28;20023;-61
2023/07/23 10:09:09;;;;;;;8.43;4.60;;;;;;;;;;5081924;28;20035;-61
2023/07/23 10:11:35;;;;;;;8.13;4.88;;;;;;;;;;5087119;28;20043;-60
2023/07/23 10:14:02;;;;;;;9.68;5.07;;;;;;;;;;5086304;28;20039;-60
2023/07/23 10:16:29;;;;;;;9.55;4.82;;;;;;;;;;5085821;28;20031;-60
2023/07/23 10:18:55;;;;;;;8.63;4.85;;;;;;;;;;5083878;28;20059;-60
2023/07/23 10:21:23;;;;;;;9.57;5.13;;;;;;;;;;5085085;28;20066;-61
2023/07/23 10:23:58;;;;;;;8.70;5.38;;;;;;;;;;5087692;28;20061;-60
2023/07/23 10:26:24;;;;;;;9.23;5.03;;;;;;;;;;5083909;28;20042;-61
2023/07/23 10:28:51;;;;;;;10.48;5.68;;;;;;;;;;5089016;28;20020;-60
2023/07/23 10:31:25;;;;;;;10.13;5.10;;;;;;;;;;5083489;28;20031;-60
2023/07/23 10:33:54;;;;;;;8.23;4.57;;;;;;;;;;5083797;28;20089;-60
2023/07/23 10:36:24;;;;;;;8.48;5.15;;;;;;;;;;5082909;28;20093;-61
2023/07/23 10:39:16;;;;;;;8.85;5.03;;;;;;;;;;5083248;28;21339;-61
2023/07/23 10:41:49;;;;;;;10.38;5.75;;;;;;;;;;5080214;28;20718;-61
2023/07/23 10:44:24;;;;;;;8.88;5.60;;;;;;;;;;5073289;28;20015;-61
2023/07/23 10:46:50;;;;;;;9.65;5.10;;;;;;;;;;5086260;28;20023;-61
2023/07/23 10:49:22;;;;;;;10.02;5.60;;;;;;;;;;5077177;28;20020;-63
2023/07/23 10:51:50;;;;;;;8.65;5.30;;;;;;;;;;5086381;28;20574;-61
2023/07/23 10:54:15;;;;;;;9.23;5.60;;;;;;;;;;5078771;28;20011;-61
2023/07/23 10:56:43;;;;;;;8.30;5.10;;;;;;;;;;5079165;28;20635;-63
2023/07/23 10:59:20;;;;;;;9.60;5.72;;;;;;;;;;5092830;28;20265;-62
2023/07/23 11:01:48;;;;;;;8.98;5.50;;;;;;;;;;5078260;28;20027;-62
2023/07/23 11:04:14;;;;;;;11.63;5.97;;;;;;;;;;5090188;28;20023;-62
2023/07/23 11:06:53;;;;;;;9.70;5.80;;;;;;;;;;5085083;28;20028;-62
2023/07/23 11:09:23;;;;;;;9.75;6.40;;;;;;;;;;5083884;28;20035;-62
2023/07/23 11:11:50;;;;;;;11.05;6.55;;;;;;;;;;5084187;28;20023;-62
2023/07/23 11:14:17;;;;;;;9.02;5.43;;;;;;;;;;5078558;28;20027;-62
2023/07/23 11:16:42;;;;;;;9.85;5.80;;;;;;;;;;5087278;28;20027;-62
2023/07/23 11:19:07;;;;;;;9.07;5.65;;;;;;;;;;5082921;28;20163;-62
2023/07/23 11:21:33;;;;;;;10.13;6.05;;;;;;;;;;5090037;28;20175;-62
2023/07/23 11:23:59;;;;;;;8.82;5.55;;;;;;;;;;5083316;28;20024;-62
2023/07/23 11:26:24;;;;;;;11.88;5.90;;;;;;;;;;5083227;28;20015;-62
2023/07/23 11:28:51;;;;;;;9.35;6.00;;;;;;;;;;5084502;28;20077;-63
2023/07/23 11:31:16;;;;;;;11.43;5.88;;;;;;;;;;5078211;28;20070;-62
2023/07/23 11:33:46;;;;;;;11.98;6.10;;;;;;;;;;5089852;28;20708;-62
2023/07/23 11:36:12;;;;;;;8.55;5.97;;;;;;;;;;5080081;27;20016;-62
2023/07/23 11:38:40;;;;;;;12.70;6.78;;;;;;;;;;5082289;28;20074;-62
2023/07/23 11:41:05;;;;;;;10.57;6.70;;;;;;;;;;5081882;28;20123;-62
2023/07/23 11:43:32;;;;;;;11.73;6.38;;;;;;;;;;5088062;28;20034;-63
2023/07/23 11:45:59;;;;;;;10.02;6.18;;;;;;;;;;5086557;28;20047;-63
2023/07/23 11:48:25;;;;;;;11.20;6.00;;;;;;;;;;5077715;28;20061;-63
2023/07/23 11:50:51;;;;;;;9.17;6.27;;;;;;;;;;5082860;28;20046;-63
2023/07/23 11:53:30;;;;;;;12.73;6.55;;;;;;;;;;5080801;28;20186;-62
2023/07/23 11:56:02;;;;;;;9.63;6.15;;;;;;;;;;5081840;28;20016;-62
2023/07/23 11:58:27;;;;;;;11.02;6.47;;;;;;;;;;5083447;28;20046;-62
2023/07/23 12:00:53;;;;;;;9.70;6.45;;;;;;;;;;5078906;28;20028;-63
2023/07/23 12:03:18;;;;;;;11.03;6.80;;;;;;;;;;5075500;28;20033;-60
2023/07/23 12:05:44;;;;;;;11.43;6.67;;;;;;;;;;5079385;28;20729;-62
2023/07/23 12:08:11;;;;;;;11.10;6.95;;;;;;;;;;5081528;28;20019;-62
2023/07/23 12:10:38;;;;;;;11.07;6.57;;;;;;;;;;5078651;28;20034;-60
2023/07/23 12:13:07;;;;;;;10.07;6.60;;;;;;;;;;5087758;28;20096;-62
2023/07/23 12:15:33;;;;;;;11.32;6.63;;;;;;;;;;5081902;27;20521;-62
2023/07/23 12:17:58;;;;;;;12.03;6.97;;;;;;;;;;5080388;28;20058;-66
2023/07/23 12:20:24;;;;;;;11.27;6.97;;;;;;;;;;5082257;28;20050;-62
2023/07/23 12:22:53;;;;;;;11.95;7.03;;;;;;;;;;5077726;28;20398;-62
2023/07/23 12:25:19;;;;;;;11.48;6.82;;;;;;;;;;5082915;28;21350;-63
2023/07/23 12:27:44;;;;;;;12.90;6.90;;;;;;;;;;5081105;28;20027;-62
2023/07/23 12:30:10;;;;;;;10.75;6.05;;;;;;;;;;5083801;28;20749;-61
2023/07/23 12:32:35;;;;;;;10.60;6.78;;;;;;;;;;5069589;28;21257;-62
2023/07/23 12:35:01;;;;;;;8.87;6.37;;;;;;;;;;5078825;28;20099;-62
2023/07/23 12:37:26;;;;;;;10.23;6.63;;;;;;;;;;5079050;28;20667;-62
2023/07/23 12:39:57;;;;;;;10.13;6.45;;;;;;;;;;5083812;28;20772;-62
2023/07/23 12:42:25;;;;;;;11.52;6.55;;;;;;;;;;5077180;28;20015;-62
2023/07/23 12:44:50;;;;;;;9.38;6.15;;;;;;;;;;5081545;28;20103;-62
2023/07/23 12:47:15;;;;;;;10.10;6.10;;;;;;;;;;5084374;28;20072;-62
2023/07/23 12:49:41;;;;;;;11.67;6.57;;;;;;;;;;5080231;28;20102;-62
2023/07/23 12:52:07;;;;;;;11.45;6.70;;;;;;;;;;5087439;28;20728;-62
2023/07/23 12:54:32;;;;;;;12.43;6.82;;;;;;;;;;5081692;28;20039;-63
2023/07/23 12:56:58;;;;;;;9.88;6.65;;;;;;;;;;5085415;28;20156;-63
2023/07/23 12:59:23;;;;;;;11.53;7.20;;;;;;;;;;5078559;28;20122;-62
2023/07/23 13:01:49;;;;;;;10.02;6.40;;;;;;;;;;5078428;28;20826;-61
2023/07/23 13:04:14;;;;;;;12.25;6.95;;;;;;;;;;5067038;27;20862;-62
2023/07/23 13:06:39;;;;;;;12.60;6.80;;;;;;;;;;5085050;28;20019;-62
2023/07/23 13:09:05;;;;;;;9.93;6.30;;;;;;;;;;5080381;28;20614;-63
2023/07/23 13:11:30;;;;;;;10.40;6.45;;;;;;;;;;5082543;28;20016;-62
2023/07/23 13:13:55;;;;;;;11.53;6.57;;;;;;;;;;5080176;28;20036;-63
2023/07/23 13:16:21;;;;;;;11.13;6.93;;;;;;;;;;5080558;28;20359;-63
2023/07/23 13:18:46;;;;;;;10.70;6.60;;;;;;;;;;5084670;28;20071;-63
2023/07/23 13:21:11;;;;;;;13.52;6.82;;;;;;;;;;5081904;28;20034;-65
2023/07/23 13:23:39;;;;;;;13.07;6.90;;;;;;;;;;5082608;28;21010;-64
2023/07/23 13:26:04;;;;;;;14.18;7.38;;;;;;;;;;5082151;28;20103;-64
2023/07/23 13:28:29;;;;;;;11.68;6.90;;;;;;;;;;5080717;28;21158;-64
2023/07/23 13:30:55;;;;;;;11.50;6.87;;;;;;;;;;5084599;28;20047;-64
2023/07/23 13:33:20;;;;;;;11.35;6.90;;;;;;;;;;5083252;28;20015;-63
2023/07/23 13:35:45;;;;;;;10.68;7.03;;;;;;;;;;5082936;28;20092;-63
2023/07/23 13:38:11;;;;;;;11.35;6.75;;;;;;;;;;5082543;28;20724;-65
2023/07/23 13:40:40;;;;;;;13.40;7.20;;;;;;;;;;5084790;28;20846;-64
2023/07/23 13:43:05;;;;;;;12.65;7.28;;;;;;;;;;5083388;28;20039;-64
2023/07/23 13:45:31;;;;;;;13.02;7.22;;;;;;;;;;5086745;28;20785;-65
2023/07/23 13:47:58;;;;;;;13.23;7.73;;;;;;;;;;5080809;28;20080;-65
2023/07/23 13:50:23;;;;;;;14.43;7.85;;;;;;;;;;5078529;28;20315;-63
2023/07/23 13:52:49;;;;;;;13.03;7.93;;;;;;;;;;5088291;28;20899;-64
2023/07/23 13:55:17;;;;;;;13.13;8.07;;;;;;;;;;5077584;28;20364;-64
2023/07/23 13:57:42;;;;;;;13.82;7.93;;;;;;;;;;5090499;28;20274;-65
2023/07/23 14:00:10;;;;;;;14.05;8.48;;;;;;;;;;5080944;28;20023;-66
2023/07/23 14:02:35;;;;;;;12.73;7.72;;;;;;;;;;5086698;28;20020;-65
2023/07/23 14:05:00;;;;;;;12.57;8.20;;;;;;;;;;5076395;28;20664;-65
2023/07/23 14:07:26;;;;;;;12.80;8.85;;;;;;;;;;5086066;28;20105;-66
2023/07/23 14:09:51;;;;;;;14.93;9.25;;;;;;;;;;5076250;28;20826;-66
2023/07/23 14:12:16;;;;;;;13.98;8.38;;;;;;;;;;5084091;28;20055;-65
2023/07/23 14:14:41;;;;;;;13.70;8.63;;;;;;;;;;5081743;28;20024;-65
2023/07/23 14:17:07;;;;;;;13.27;8.30;;;;;;;;;;5083845;28;20032;-67
2023/07/23 14:19:35;;;;;;;12.30;8.67;;;;;;;;;;5081153;28;20036;-65
2023/07/23 14:22:00;;;;;;;12.77;8.18;;;;;;;;;;5081143;28;20019;-65
2023/07/23 14:24:25;;;;;;;12.93;8.52;;;;;;;;;;5087234;28;20517;-66
2023/07/23 14:26:53;;;;;;;12.33;8.27;;;;;;;;;;5079869;28;20452;-66
2023/07/23 14:29:18;;;;;;;12.07;8.27;;;;;;;;;;5085980;28;20497;-66
2023/07/23 14:31:46;;;;;;;14.13;8.33;;;;;;;;;;5083290;28;20026;-65